createdAt,value
2018-12-02T00:06:19.623Z,99820.38
2018-12-02T00:14:40.690Z,99811.27
2018-12-02T00:23:01.714Z,99808.39
2018-12-02T00:31:22.704Z,99794.91
2018-12-02T00:39:43.683Z,99783.45
2018-12-02T00:48:04.690Z,99780.53
2018-12-02T00:56:25.683Z,99770.39
2018-12-02T01:04:46.750Z,99755.75
2018-12-02T01:13:07.757Z,99742.66
2018-12-02T01:21:28.760Z,99729.30
2018-12-02T01:29:49.760Z,99706.05
2018-12-02T01:38:10.786Z,99692.41
2018-12-02T01:46:31.772Z,99679.73
2018-12-02T01:54:52.775Z,99693.26
2018-12-02T02:03:13.779Z,99671.70
2018-12-02T02:11:34.802Z,99640.27
2018-12-02T02:19:55.808Z,99634.11
2018-12-02T02:28:16.835Z,99626.32
2018-12-02T02:36:37.837Z,99612.83
2018-12-02T02:44:58.820Z,99587.25
2018-12-02T02:53:19.808Z,99582.91
2018-12-02T03:01:40.792Z,99560.80
2018-12-02T03:10:01.801Z,99560.88
2018-12-02T03:18:22.816Z,99553.72
2018-12-02T03:26:44.175Z,99549.04
2018-12-02T03:35:05.179Z,99541.84
2018-12-02T03:43:26.179Z,99548.75
2018-12-02T03:51:47.186Z,99542.16
2018-12-02T04:00:08.168Z,99531.05
2018-12-02T04:08:29.161Z,99521.14
2018-12-02T04:16:50.143Z,99502.03
2018-12-02T04:25:11.148Z,99495.67
2018-12-02T04:33:32.132Z,99473.00
2018-12-02T04:41:53.154Z,99464.37
2018-12-02T04:50:14.190Z,99447.05
2018-12-02T04:58:35.195Z,99435.53
2018-12-02T05:06:56.196Z,99418.34
2018-12-02T05:15:17.206Z,99402.47
2018-12-02T05:23:38.211Z,99400.67
2018-12-02T05:31:59.214Z,99399.35
2018-12-02T05:40:20.238Z,99389.55
2018-12-02T05:48:41.251Z,99369.59
2018-12-02T05:57:02.275Z,99361.70
2018-12-02T06:05:23.302Z,99340.61
2018-12-02T06:13:44.348Z,99325.63
2018-12-02T06:22:05.542Z,99330.90
2018-12-02T06:30:26.551Z,99321.90
2018-12-02T06:38:47.610Z,99324.16
2018-12-02T06:47:08.632Z,99323.58
2018-12-02T06:55:29.676Z,99313.37
2018-12-02T07:03:51.772Z,99306.25
2018-12-02T07:12:12.810Z,99288.97
2018-12-02T07:20:35.903Z,99290.43
2018-12-02T07:28:57.134Z,99280.91
2018-12-02T07:37:19.267Z,99285.41
2018-12-02T07:45:40.348Z,99290.13
2018-12-02T07:54:02.631Z,99270.57
2018-12-02T08:02:23.776Z,99257.66
2018-12-02T08:10:44.793Z,99241.03
2018-12-02T08:19:06.066Z,99244.49
2018-12-02T08:27:27.187Z,99234.31
2018-12-02T08:35:48.476Z,99228.33
2018-12-02T08:44:09.721Z,99232.34
2018-12-02T08:52:30.965Z,99238.05
2018-12-02T09:00:52.023Z,99239.09
2018-12-02T09:09:13.052Z,99249.01
2018-12-02T09:17:34.059Z,99250.33
2018-12-02T09:25:55.141Z,99217.96
2018-12-02T09:34:16.168Z,99237.73
2018-12-02T09:42:37.863Z,99244.84
2018-12-02T09:50:58.992Z,99236.78
2018-12-02T09:59:19.993Z,99234.71
2018-12-02T10:07:42.030Z,99237.94
2018-12-02T10:16:03.078Z,99241.50
2018-12-02T10:24:24.607Z,99256.52
2018-12-02T10:32:45.628Z,99237.39
2018-12-02T10:41:06.735Z,99235.91
2018-12-02T10:55:27.273Z,111224.98
2018-12-02T11:19:23.950Z,111224.98
